Hoolehua, Hawaii
Current Conditions -  °F | °C
As of 7:54 AM on Sunday 21 Dec 2014 (Local Time) from PHMK Reporting Station
Scattered Clouds Scattered Clouds  
Wind Chill: 71°   Ceiling: Unl
Heat Index: 71°   Visibility: 10mi
Dew Point: 67°   Wind: 5mph
Humidity: 87%   Direction: 360°N
Pressure: 30.05"   Gusts: NA
Location:  21.16°N, 157.06°W
Report Text: PHMK 211754Z 36004KT 10SM SCT070 22/19 A3005 RMK AO2 SLP179 60002 T02170194 10217 20167 51007
Loading
Personal Weather Stations






























Interactive Weather Map New forecast layout! Learn more

10-Day Weather Forecast

Advertisements
Track Severe Weather on mobile